sensor_id;sensor_type;location;lat;lon;timestamp;P1;durP1;ratioP1;P2;durP2;ratioP2
3369;SDS011;42042;51.948;7.628;2023-05-07T00:02:20;8.37;;;7.60;;
3369;SDS011;42042;51.948;7.628;2023-05-07T00:04:47;7.13;;;6.53;;
3369;SDS011;42042;51.948;7.628;2023-05-07T00:07:15;7.20;;;6.50;;
3369;SDS011;42042;51.948;7.628;2023-05-07T00:09:42;9.37;;;7.63;;
3369;SDS011;42042;51.948;7.628;2023-05-07T00:12:11;7.10;;;6.50;;
3369;SDS011;42042;51.948;7.628;2023-05-07T00:14:38;8.23;;;7.27;;
3369;SDS011;42042;51.948;7.628;2023-05-07T00:17:05;7.47;;;6.87;;
3369;SDS011;42042;51.948;7.628;2023-05-07T00:19:32;8.30;;;7.50;;
3369;SDS011;42042;51.948;7.628;2023-05-07T00:21:59;8.87;;;8.07;;
3369;SDS011;42042;51.948;7.628;2023-05-07T00:24:26;8.37;;;7.57;;
3369;SDS011;42042;51.948;7.628;2023-05-07T00:26:54;7.57;;;6.87;;
3369;SDS011;42042;51.948;7.628;2023-05-07T00:29:24;8.97;;;6.73;;
3369;SDS011;42042;51.948;7.628;2023-05-07T00:31:51;9.93;;;8.97;;
3369;SDS011;42042;51.948;7.628;2023-05-07T00:34:19;8.73;;;7.63;;
3369;SDS011;42042;51.948;7.628;2023-05-07T00:36:47;8.23;;;7.40;;
3369;SDS011;42042;51.948;7.628;2023-05-07T00:39:14;8.50;;;7.70;;
3369;SDS011;42042;51.948;7.628;2023-05-07T00:41:41;8.07;;;7.37;;
3369;SDS011;42042;51.948;7.628;2023-05-07T00:44:08;8.50;;;7.70;;
3369;SDS011;42042;51.948;7.628;2023-05-07T00:46:37;7.60;;;6.80;;
3369;SDS011;42042;51.948;7.628;2023-05-07T00:49:04;8.77;;;7.87;;
3369;SDS011;42042;51.948;7.628;2023-05-07T00:51:32;9.40;;;8.50;;
3369;SDS011;42042;51.948;7.628;2023-05-07T00:54:00;8.50;;;7.70;;
3369;SDS011;42042;51.948;7.628;2023-05-07T00:56:27;7.67;;;6.97;;
3369;SDS011;42042;51.948;7.628;2023-05-07T00:58:55;8.80;;;7.60;;
3369;SDS011;42042;51.948;7.628;2023-05-07T01:01:22;8.23;;;7.37;;
3369;SDS011;42042;51.948;7.628;2023-05-07T01:03:51;9.50;;;8.13;;
3369;SDS011;42042;51.948;7.628;2023-05-07T01:06:18;8.50;;;7.80;;
3369;SDS011;42042;51.948;7.628;2023-05-07T01:08:46;12.70;;;9.20;;
3369;SDS011;42042;51.948;7.628;2023-05-07T01:11:14;10.70;;;9.70;;
3369;SDS011;42042;51.948;7.628;2023-05-07T01:13:42;11.20;;;9.57;;
3369;SDS011;42042;51.948;7.628;2023-05-07T01:16:09;10.60;;;9.50;;
3369;SDS011;42042;51.948;7.628;2023-05-07T01:18:37;12.53;;;10.07;;
3369;SDS011;42042;51.948;7.628;2023-05-07T01:21:06;11.77;;;10.57;;
3369;SDS011;42042;51.948;7.628;2023-05-07T01:23:35;11.50;;;10.50;;
3369;SDS011;42042;51.948;7.628;2023-05-07T01:26:02;13.10;;;11.80;;
3369;SDS011;42042;51.948;7.628;2023-05-07T01:28:30;14.37;;;12.13;;
3369;SDS011;42042;51.948;7.628;2023-05-07T01:30:58;14.83;;;12.90;;
3369;SDS011;42042;51.948;7.628;2023-05-07T01:33:27;13.73;;;12.40;;
3369;SDS011;42042;51.948;7.628;2023-05-07T01:35:56;16.97;;;13.20;;
3369;SDS011;42042;51.948;7.628;2023-05-07T01:38:25;13.73;;;11.70;;
3369;SDS011;42042;51.948;7.628;2023-05-07T01:40:54;15.10;;;13.60;;
3369;SDS011;42042;51.948;7.628;2023-05-07T01:43:23;16.17;;;14.47;;
3369;SDS011;42042;51.948;7.628;2023-05-07T01:45:50;15.13;;;13.50;;
3369;SDS011;42042;51.948;7.628;2023-05-07T01:48:18;16.87;;;14.13;;
3369;SDS011;42042;51.948;7.628;2023-05-07T01:50:45;16.13;;;14.40;;
3369;SDS011;42042;51.948;7.628;2023-05-07T01:53:13;17.63;;;15.27;;
3369;SDS011;42042;51.948;7.628;2023-05-07T01:55:40;16.90;;;15.13;;
3369;SDS011;42042;51.948;7.628;2023-05-07T01:58:08;16.50;;;14.80;;
3369;SDS011;42042;51.948;7.628;2023-05-07T02:00:36;17.83;;;15.93;;
3369;SDS011;42042;51.948;7.628;2023-05-07T02:03:03;20.20;;;16.23;;
3369;SDS011;42042;51.948;7.628;2023-05-07T02:05:30;22.30;;;17.57;;
3369;SDS011;42042;51.948;7.628;2023-05-07T02:07:57;19.60;;;17.60;;
3369;SDS011;42042;51.948;7.628;2023-05-07T02:10:24;20.17;;;16.20;;
3369;SDS011;42042;51.948;7.628;2023-05-07T02:12:52;21.37;;;16.27;;
3369;SDS011;42042;51.948;7.628;2023-05-07T02:15:20;21.87;;;16.70;;
3369;SDS011;42042;51.948;7.628;2023-05-07T02:18:00;21.13;;;18.83;;
3369;SDS011;42042;51.948;7.628;2023-05-07T02:20:27;23.20;;;19.10;;
3369;SDS011;42042;51.948;7.628;2023-05-07T02:22:54;21.10;;;18.43;;
3369;SDS011;42042;51.948;7.628;2023-05-07T02:25:21;20.53;;;18.30;;
3369;SDS011;42042;51.948;7.628;2023-05-07T02:27:49;22.73;;;19.90;;
3369;SDS011;42042;51.948;7.628;2023-05-07T02:30:16;22.93;;;20.43;;
3369;SDS011;42042;51.948;7.628;2023-05-07T02:32:47;22.63;;;20.30;;
3369;SDS011;42042;51.948;7.628;2023-05-07T02:35:14;26.20;;;21.90;;
3369;SDS011;42042;51.948;7.628;2023-05-07T02:37:42;23.90;;;21.40;;
3369;SDS011;42042;51.948;7.628;2023-05-07T02:40:10;23.67;;;20.73;;
3369;SDS011;42042;51.948;7.628;2023-05-07T02:42:37;25.87;;;21.53;;
3369;SDS011;42042;51.948;7.628;2023-05-07T02:45:05;23.60;;;21.13;;
3369;SDS011;42042;51.948;7.628;2023-05-07T02:47:32;26.10;;;20.67;;
3369;SDS011;42042;51.948;7.628;2023-05-07T02:50:00;22.80;;;19.47;;
3369;SDS011;42042;51.948;7.628;2023-05-07T02:52:28;24.63;;;20.27;;
3369;SDS011;42042;51.948;7.628;2023-05-07T02:54:55;23.63;;;20.77;;
3369;SDS011;42042;51.948;7.628;2023-05-07T02:57:22;22.23;;;19.27;;
3369;SDS011;42042;51.948;7.628;2023-05-07T02:59:49;24.73;;;21.20;;
3369;SDS011;42042;51.948;7.628;2023-05-07T03:02:16;25.20;;;21.27;;
3369;SDS011;42042;51.948;7.628;2023-05-07T03:04:44;25.67;;;20.33;;
3369;SDS011;42042;51.948;7.628;2023-05-07T03:07:12;23.50;;;20.90;;
3369;SDS011;42042;51.948;7.628;2023-05-07T03:09:39;23.20;;;20.53;;
3369;SDS011;42042;51.948;7.628;2023-05-07T03:12:06;25.70;;;21.27;;
3369;SDS011;42042;51.948;7.628;2023-05-07T03:14:34;24.93;;;20.97;;
3369;SDS011;42042;51.948;7.628;2023-05-07T03:17:01;29.50;;;20.80;;
3369;SDS011;42042;51.948;7.628;2023-05-07T03:19:28;24.60;;;20.00;;
3369;SDS011;42042;51.948;7.628;2023-05-07T03:21:55;23.23;;;20.73;;
3369;SDS011;42042;51.948;7.628;2023-05-07T03:24:24;22.50;;;20.07;;
3369;SDS011;42042;51.948;7.628;2023-05-07T03:26:51;23.33;;;20.87;;
3369;SDS011;42042;51.948;7.628;2023-05-07T03:29:18;25.87;;;21.40;;
3369;SDS011;42042;51.948;7.628;2023-05-07T03:31:45;26.10;;;21.03;;
3369;SDS011;42042;51.948;7.628;2023-05-07T03:34:13;23.13;;;20.50;;
3369;SDS011;42042;51.948;7.628;2023-05-07T03:36:42;27.73;;;21.53;;
3369;SDS011;42042;51.948;7.628;2023-05-07T03:39:09;26.10;;;20.30;;
3369;SDS011;42042;51.948;7.628;2023-05-07T03:41:37;22.63;;;19.70;;
3369;SDS011;42042;51.948;7.628;2023-05-07T03:44:04;23.20;;;20.00;;
3369;SDS011;42042;51.948;7.628;2023-05-07T03:46:32;24.27;;;21.67;;
3369;SDS011;42042;51.948;7.628;2023-05-07T03:49:00;24.47;;;21.90;;
3369;SDS011;42042;51.948;7.628;2023-05-07T03:51:27;22.37;;;20.10;;
3369;SDS011;42042;51.948;7.628;2023-05-07T03:53:54;26.30;;;21.10;;
3369;SDS011;42042;51.948;7.628;2023-05-07T03:56:22;26.07;;;21.60;;
3369;SDS011;42042;51.948;7.628;2023-05-07T03:58:52;23.53;;;20.80;;
3369;SDS011;42042;51.948;7.628;2023-05-07T04:01:20;23.77;;;20.57;;
3369;SDS011;42042;51.948;7.628;2023-05-07T04:03:47;28.40;;;21.40;;
3369;SDS011;42042;51.948;7.628;2023-05-07T04:06:15;27.40;;;21.10;;
3369;SDS011;42042;51.948;7.628;2023-05-07T04:08:43;23.23;;;20.03;;
3369;SDS011;42042;51.948;7.628;2023-05-07T04:11:10;22.50;;;20.10;;
3369;SDS011;42042;51.948;7.628;2023-05-07T04:13:37;22.73;;;20.33;;
3369;SDS011;42042;51.948;7.628;2023-05-07T04:16:06;24.93;;;22.23;;
3369;SDS011;42042;51.948;7.628;2023-05-07T04:18:33;25.73;;;21.47;;
3369;SDS011;42042;51.948;7.628;2023-05-07T04:21:00;24.87;;;20.53;;
3369;SDS011;42042;51.948;7.628;2023-05-07T04:23:27;21.83;;;19.43;;
3369;SDS011;42042;51.948;7.628;2023-05-07T04:25:55;27.30;;;20.90;;
3369;SDS011;42042;51.948;7.628;2023-05-07T04:28:22;27.03;;;24.13;;
3369;SDS011;42042;51.948;7.628;2023-05-07T04:30:49;26.60;;;21.17;;
3369;SDS011;42042;51.948;7.628;2023-05-07T04:33:18;24.77;;;21.10;;
3369;SDS011;42042;51.948;7.628;2023-05-07T04:35:45;23.23;;;20.73;;
3369;SDS011;42042;51.948;7.628;2023-05-07T04:38:12;25.10;;;21.77;;
3369;SDS011;42042;51.948;7.628;2023-05-07T04:40:39;23.70;;;20.40;;
3369;SDS011;42042;51.948;7.628;2023-05-07T04:43:07;23.70;;;21.20;;
3369;SDS011;42042;51.948;7.628;2023-05-07T04:45:34;22.83;;;20.53;;
3369;SDS011;42042;51.948;7.628;2023-05-07T04:48:02;24.40;;;19.03;;
3369;SDS011;42042;51.948;7.628;2023-05-07T04:50:31;27.13;;;21.90;;
3369;SDS011;42042;51.948;7.628;2023-05-07T04:52:58;27.13;;;21.87;;
3369;SDS011;42042;51.948;7.628;2023-05-07T04:55:25;21.53;;;18.57;;
3369;SDS011;42042;51.948;7.628;2023-05-07T04:57:52;29.10;;;22.17;;
3369;SDS011;42042;51.948;7.628;2023-05-07T05:00:20;22.57;;;20.20;;
3369;SDS011;42042;51.948;7.628;2023-05-07T05:02:47;24.53;;;20.90;;
3369;SDS011;42042;51.948;7.628;2023-05-07T05:05:15;22.80;;;19.77;;
3369;SDS011;42042;51.948;7.628;2023-05-07T05:07:43;24.70;;;19.63;;
3369;SDS011;42042;51.948;7.628;2023-05-07T05:10:10;28.80;;;21.60;;
3369;SDS011;42042;51.948;7.628;2023-05-07T05:12:38;23.73;;;20.50;;
3369;SDS011;42042;51.948;7.628;2023-05-07T05:15:05;23.47;;;20.77;;
3369;SDS011;42042;51.948;7.628;2023-05-07T05:17:33;24.10;;;21.60;;
3369;SDS011;42042;51.948;7.628;2023-05-07T05:20:01;24.40;;;20.30;;
3369;SDS011;42042;51.948;7.628;2023-05-07T05:22:28;23.70;;;19.60;;
3369;SDS011;42042;51.948;7.628;2023-05-07T05:24:57;23.57;;;21.03;;
3369;SDS011;42042;51.948;7.628;2023-05-07T05:27:25;22.03;;;19.53;;
3369;SDS011;42042;51.948;7.628;2023-05-07T05:29:53;22.33;;;19.93;;
3369;SDS011;42042;51.948;7.628;2023-05-07T05:32:21;25.00;;;21.70;;
3369;SDS011;42042;51.948;7.628;2023-05-07T05:34:48;24.37;;;19.03;;
3369;SDS011;42042;51.948;7.628;2023-05-07T05:37:16;23.20;;;20.70;;
3369;SDS011;42042;51.948;7.628;2023-05-07T05:39:43;24.17;;;20.13;;
3369;SDS011;42042;51.948;7.628;2023-05-07T05:42:11;22.00;;;19.63;;
3369;SDS011;42042;51.948;7.628;2023-05-07T05:44:38;24.77;;;20.27;;
3369;SDS011;42042;51.948;7.628;2023-05-07T05:47:06;25.87;;;20.77;;
3369;SDS011;42042;51.948;7.628;2023-05-07T05:49:33;23.37;;;19.67;;
3369;SDS011;42042;51.948;7.628;2023-05-07T05:52:00;23.83;;;19.40;;
3369;SDS011;42042;51.948;7.628;2023-05-07T05:54:27;26.43;;;21.60;;
3369;SDS011;42042;51.948;7.628;2023-05-07T05:56:54;23.37;;;20.90;;
3369;SDS011;42042;51.948;7.628;2023-05-07T05:59:23;23.40;;;20.50;;
3369;SDS011;42042;51.948;7.628;2023-05-07T06:01:50;23.13;;;20.37;;
3369;SDS011;42042;51.948;7.628;2023-05-07T06:04:18;22.43;;;20.10;;
3369;SDS011;42042;51.948;7.628;2023-05-07T06:06:45;22.20;;;19.80;;
3369;SDS011;42042;51.948;7.628;2023-05-07T06:09:12;26.10;;;19.90;;
3369;SDS011;42042;51.948;7.628;2023-05-07T06:11:39;27.00;;;21.20;;
3369;SDS011;42042;51.948;7.628;2023-05-07T06:14:06;24.63;;;20.40;;
3369;SDS011;42042;51.948;7.628;2023-05-07T06:16:35;24.60;;;20.90;;
3369;SDS011;42042;51.948;7.628;2023-05-07T06:19:03;21.43;;;19.23;;
3369;SDS011;42042;51.948;7.628;2023-05-07T06:21:30;26.10;;;21.73;;
3369;SDS011;42042;51.948;7.628;2023-05-07T06:23:57;30.10;;;21.60;;
3369;SDS011;42042;51.948;7.628;2023-05-07T06:26:24;23.80;;;21.20;;
3369;SDS011;42042;51.948;7.628;2023-05-07T06:28:51;23.90;;;20.30;;
3369;SDS011;42042;51.948;7.628;2023-05-07T06:31:19;23.83;;;19.30;;
3369;SDS011;42042;51.948;7.628;2023-05-07T06:33:48;23.63;;;20.63;;
3369;SDS011;42042;51.948;7.628;2023-05-07T06:36:15;26.80;;;22.03;;
3369;SDS011;42042;51.948;7.628;2023-05-07T06:38:42;22.83;;;20.47;;
3369;SDS011;42042;51.948;7.628;2023-05-07T06:41:09;24.60;;;19.97;;
3369;SDS011;42042;51.948;7.628;2023-05-07T06:43:36;23.60;;;20.10;;
3369;SDS011;42042;51.948;7.628;2023-05-07T06:46:04;23.33;;;20.47;;
3369;SDS011;42042;51.948;7.628;2023-05-07T06:48:31;22.97;;;20.43;;
3369;SDS011;42042;51.948;7.628;2023-05-07T06:50:59;24.97;;;21.60;;
3369;SDS011;42042;51.948;7.628;2023-05-07T06:53:27;24.20;;;21.70;;
3369;SDS011;42042;51.948;7.628;2023-05-07T06:55:55;22.17;;;19.17;;
3369;SDS011;42042;51.948;7.628;2023-05-07T06:58:22;25.27;;;20.20;;
3369;SDS011;42042;51.948;7.628;2023-05-07T07:00:50;21.77;;;19.17;;
3369;SDS011;42042;51.948;7.628;2023-05-07T07:03:17;26.73;;;20.53;;
3369;SDS011;42042;51.948;7.628;2023-05-07T07:05:44;26.83;;;21.27;;
3369;SDS011;42042;51.948;7.628;2023-05-07T07:08:13;23.50;;;19.80;;
3369;SDS011;42042;51.948;7.628;2023-05-07T07:10:42;27.33;;;20.83;;
3369;SDS011;42042;51.948;7.628;2023-05-07T07:13:09;24.73;;;21.17;;
3369;SDS011;42042;51.948;7.628;2023-05-07T07:15:36;24.23;;;20.80;;
3369;SDS011;42042;51.948;7.628;2023-05-07T07:18:03;25.57;;;21.63;;
3369;SDS011;42042;51.948;7.628;2023-05-07T07:20:31;28.93;;;23.00;;
3369;SDS011;42042;51.948;7.628;2023-05-07T07:22:58;30.20;;;22.70;;
3369;SDS011;42042;51.948;7.628;2023-05-07T07:25:27;23.97;;;18.93;;
3369;SDS011;42042;51.948;7.628;2023-05-07T07:27:54;24.90;;;22.17;;
3369;SDS011;42042;51.948;7.628;2023-05-07T07:30:21;29.17;;;21.40;;
3369;SDS011;42042;51.948;7.628;2023-05-07T07:32:48;24.50;;;20.63;;
3369;SDS011;42042;51.948;7.628;2023-05-07T07:35:17;23.27;;;20.77;;
3369;SDS011;42042;51.948;7.628;2023-05-07T07:37:45;24.33;;;21.73;;
3369;SDS011;42042;51.948;7.628;2023-05-07T07:40:12;37.60;;;30.13;;
3369;SDS011;42042;51.948;7.628;2023-05-07T07:42:40;25.77;;;23.03;;
3369;SDS011;42042;51.948;7.628;2023-05-07T07:45:08;23.70;;;20.87;;
3369;SDS011;42042;51.948;7.628;2023-05-07T07:47:35;25.40;;;21.40;;
3369;SDS011;42042;51.948;7.628;2023-05-07T07:50:03;23.20;;;20.43;;
3369;SDS011;42042;51.948;7.628;2023-05-07T07:52:30;23.73;;;20.50;;
3369;SDS011;42042;51.948;7.628;2023-05-07T07:54:57;22.73;;;20.20;;
3369;SDS011;42042;51.948;7.628;2023-05-07T07:57:25;21.13;;;18.87;;
3369;SDS011;42042;51.948;7.628;2023-05-07T07:59:53;26.57;;;21.40;;
3369;SDS011;42042;51.948;7.628;2023-05-07T08:02:20;22.07;;;19.63;;
3369;SDS011;42042;51.948;7.628;2023-05-07T08:04:48;26.53;;;22.43;;
3369;SDS011;42042;51.948;7.628;2023-05-07T08:07:15;25.50;;;21.60;;
3369;SDS011;42042;51.948;7.628;2023-05-07T08:09:43;25.30;;;20.33;;
3369;SDS011;42042;51.948;7.628;2023-05-07T08:12:11;24.70;;;21.30;;
3369;SDS011;42042;51.948;7.628;2023-05-07T08:14:38;22.47;;;18.93;;
3369;SDS011;42042;51.948;7.628;2023-05-07T08:17:06;22.83;;;20.57;;
3369;SDS011;42042;51.948;7.628;2023-05-07T08:19:35;23.70;;;20.10;;
3369;SDS011;42042;51.948;7.628;2023-05-07T08:22:02;25.97;;;20.67;;
3369;SDS011;42042;51.948;7.628;2023-05-07T08:24:30;29.53;;;23.60;;
3369;SDS011;42042;51.948;7.628;2023-05-07T08:26:57;23.50;;;20.90;;
3369;SDS011;42042;51.948;7.628;2023-05-07T08:29:25;30.67;;;26.10;;
3369;SDS011;42042;51.948;7.628;2023-05-07T08:31:52;26.43;;;22.33;;
3369;SDS011;42042;51.948;7.628;2023-05-07T08:34:21;22.23;;;19.80;;
3369;SDS011;42042;51.948;7.628;2023-05-07T08:36:48;23.83;;;19.57;;
3369;SDS011;42042;51.948;7.628;2023-05-07T08:39:15;22.97;;;19.07;;
3369;SDS011;42042;51.948;7.628;2023-05-07T08:41:43;25.73;;;21.23;;
3369;SDS011;42042;51.948;7.628;2023-05-07T08:44:11;26.37;;;21.37;;
3369;SDS011;42042;51.948;7.628;2023-05-07T08:46:39;23.53;;;19.90;;
3369;SDS011;42042;51.948;7.628;2023-05-07T08:49:06;30.07;;;23.93;;
3369;SDS011;42042;51.948;7.628;2023-05-07T08:51:35;22.57;;;20.17;;
3369;SDS011;42042;51.948;7.628;2023-05-07T08:54:02;23.63;;;19.33;;
3369;SDS011;42042;51.948;7.628;2023-05-07T08:56:30;24.93;;;19.70;;
3369;SDS011;42042;51.948;7.628;2023-05-07T08:58:57;25.00;;;19.77;;
3369;SDS011;42042;51.948;7.628;2023-05-07T09:01:24;25.27;;;19.63;;
3369;SDS011;42042;51.948;7.628;2023-05-07T09:03:52;19.87;;;17.60;;
3369;SDS011;42042;51.948;7.628;2023-05-07T09:06:20;24.20;;;19.93;;
3369;SDS011;42042;51.948;7.628;2023-05-07T09:08:52;24.20;;;18.97;;
3369;SDS011;42042;51.948;7.628;2023-05-07T09:11:20;25.10;;;20.70;;
3369;SDS011;42042;51.948;7.628;2023-05-07T09:13:48;23.53;;;19.33;;
3369;SDS011;42042;51.948;7.628;2023-05-07T09:16:15;22.07;;;18.90;;
3369;SDS011;42042;51.948;7.628;2023-05-07T09:18:43;22.73;;;19.07;;
3369;SDS011;42042;51.948;7.628;2023-05-07T09:21:11;19.73;;;17.57;;
3369;SDS011;42042;51.948;7.628;2023-05-07T09:23:41;22.53;;;19.03;;
3369;SDS011;42042;51.948;7.628;2023-05-07T09:26:10;21.10;;;19.00;;
3369;SDS011;42042;51.948;7.628;2023-05-07T09:28:38;20.37;;;18.30;;
3369;SDS011;42042;51.948;7.628;2023-05-07T09:33:38;21.10;;;17.50;;
3369;SDS011;42042;51.948;7.628;2023-05-07T09:36:06;20.90;;;18.17;;
3369;SDS011;42042;51.948;7.628;2023-05-07T09:38:34;25.53;;;19.17;;
3369;SDS011;42042;51.948;7.628;2023-05-07T09:41:02;19.07;;;17.17;;
3369;SDS011;42042;51.948;7.628;2023-05-07T09:43:32;22.93;;;19.63;;
3369;SDS011;42042;51.948;7.628;2023-05-07T09:46:02;28.53;;;25.50;;
3369;SDS011;42042;51.948;7.628;2023-05-07T09:48:30;23.70;;;19.40;;
3369;SDS011;42042;51.948;7.628;2023-05-07T09:50:57;22.53;;;19.23;;
3369;SDS011;42042;51.948;7.628;2023-05-07T09:53:29;18.93;;;16.03;;
3369;SDS011;42042;51.948;7.628;2023-05-07T09:55:57;23.13;;;18.93;;
3369;SDS011;42042;51.948;7.628;2023-05-07T09:58:25;20.47;;;18.27;;
3369;SDS011;42042;51.948;7.628;2023-05-07T10:00:54;21.50;;;19.20;;
3369;SDS011;42042;51.948;7.628;2023-05-07T10:03:21;21.47;;;18.60;;
3369;SDS011;42042;51.948;7.628;2023-05-07T10:05:49;21.00;;;18.80;;
3369;SDS011;42042;51.948;7.628;2023-05-07T10:08:17;21.37;;;18.50;;
3369;SDS011;42042;51.948;7.628;2023-05-07T10:10:45;20.23;;;18.03;;
3369;SDS011;42042;51.948;7.628;2023-05-07T10:13:12;21.60;;;18.13;;
3369;SDS011;42042;51.948;7.628;2023-05-07T10:15:39;20.10;;;18.10;;
3369;SDS011;42042;51.948;7.628;2023-05-07T10:18:08;20.17;;;18.07;;
3369;SDS011;42042;51.948;7.628;2023-05-07T10:20:35;19.40;;;17.23;;
3369;SDS011;42042;51.948;7.628;2023-05-07T10:23:03;20.10;;;16.50;;
3369;SDS011;42042;51.948;7.628;2023-05-07T10:25:31;19.97;;;17.90;;
3369;SDS011;42042;51.948;7.628;2023-05-07T10:28:00;18.27;;;16.33;;
3369;SDS011;42042;51.948;7.628;2023-05-07T10:30:30;20.60;;;17.63;;
3369;SDS011;42042;51.948;7.628;2023-05-07T10:33:01;18.30;;;16.30;;
3369;SDS011;42042;51.948;7.628;2023-05-07T10:35:36;18.87;;;17.00;;
3369;SDS011;42042;51.948;7.628;2023-05-07T10:38:05;24.63;;;17.10;;
3369;SDS011;42042;51.948;7.628;2023-05-07T10:40:33;19.17;;;15.77;;
3369;SDS011;42042;51.948;7.628;2023-05-07T10:43:00;19.53;;;15.70;;
3369;SDS011;42042;51.948;7.628;2023-05-07T10:45:30;15.87;;;14.27;;
3369;SDS011;42042;51.948;7.628;2023-05-07T10:48:07;16.90;;;14.10;;
3369;SDS011;42042;51.948;7.628;2023-05-07T10:50:35;18.27;;;16.37;;
3369;SDS011;42042;51.948;7.628;2023-05-07T10:58:39;16.20;;;14.50;;
3369;SDS011;42042;51.948;7.628;2023-05-07T11:01:06;17.10;;;14.83;;
3369;SDS011;42042;51.948;7.628;2023-05-07T11:03:35;15.20;;;13.70;;
3369;SDS011;42042;51.948;7.628;2023-05-07T11:06:13;16.00;;;14.50;;
3369;SDS011;42042;51.948;7.628;2023-05-07T11:08:52;15.17;;;13.67;;
3369;SDS011;42042;51.948;7.628;2023-05-07T11:11:20;17.87;;;16.17;;
3369;SDS011;42042;51.948;7.628;2023-05-07T11:14:07;15.53;;;13.93;;
3369;SDS011;42042;51.948;7.628;2023-05-07T11:16:35;17.40;;;15.70;;
3369;SDS011;42042;51.948;7.628;2023-05-07T11:19:03;15.63;;;14.13;;
3369;SDS011;42042;51.948;7.628;2023-05-07T11:21:38;14.13;;;12.17;;
3369;SDS011;42042;51.948;7.628;2023-05-07T11:24:06;16.90;;;13.30;;
3369;SDS011;42042;51.948;7.628;2023-05-07T11:26:44;15.37;;;13.60;;
3369;SDS011;42042;51.948;7.628;2023-05-07T11:29:11;16.97;;;13.77;;
3369;SDS011;42042;51.948;7.628;2023-05-07T11:31:39;15.47;;;13.97;;
3369;SDS011;42042;51.948;7.628;2023-05-07T11:34:06;15.10;;;13.50;;
3369;SDS011;42042;51.948;7.628;2023-05-07T11:36:34;15.17;;;12.23;;
3369;SDS011;42042;51.948;7.628;2023-05-07T11:39:05;15.97;;;12.93;;
3369;SDS011;42042;51.948;7.628;2023-05-07T11:41:35;14.50;;;11.93;;
3369;SDS011;42042;51.948;7.628;2023-05-07T11:44:02;14.73;;;13.23;;
3369;SDS011;42042;51.948;7.628;2023-05-07T11:46:30;12.83;;;11.63;;
3369;SDS011;42042;51.948;7.628;2023-05-07T11:48:57;13.73;;;12.33;;
3369;SDS011;42042;51.948;7.628;2023-05-07T11:51:24;13.90;;;12.50;;
3369;SDS011;42042;51.948;7.628;2023-05-07T11:53:52;12.37;;;11.10;;
3369;SDS011;42042;51.948;7.628;2023-05-07T11:56:21;14.13;;;10.77;;
3369;SDS011;42042;51.948;7.628;2023-05-07T11:58:48;11.37;;;9.93;;
3369;SDS011;42042;51.948;7.628;2023-05-07T12:01:17;17.43;;;13.23;;
3369;SDS011;42042;51.948;7.628;2023-05-07T12:03:44;11.27;;;10.20;;
3369;SDS011;42042;51.948;7.628;2023-05-07T12:06:12;11.53;;;10.43;;
3369;SDS011;42042;51.948;7.628;2023-05-07T12:08:40;14.67;;;13.27;;
3369;SDS011;42042;51.948;7.628;2023-05-07T12:11:07;10.87;;;9.77;;
3369;SDS011;42042;51.948;7.628;2023-05-07T12:13:37;11.27;;;8.80;;
3369;SDS011;42042;51.948;7.628;2023-05-07T12:16:05;10.70;;;9.30;;
3369;SDS011;42042;51.948;7.628;2023-05-07T12:18:33;10.47;;;9.47;;
3369;SDS011;42042;51.948;7.628;2023-05-07T12:21:01;13.53;;;11.43;;
3369;SDS011;42042;51.948;7.628;2023-05-07T12:23:28;11.47;;;10.43;;
3369;SDS011;42042;51.948;7.628;2023-05-07T12:25:56;11.90;;;10.77;;
3369;SDS011;42042;51.948;7.628;2023-05-07T12:28:23;10.63;;;9.63;;
3369;SDS011;42042;51.948;7.628;2023-05-07T12:30:51;10.20;;;9.20;;
3369;SDS011;42042;51.948;7.628;2023-05-07T12:33:26;8.57;;;7.70;;
3369;SDS011;42042;51.948;7.628;2023-05-07T12:35:56;10.03;;;9.03;;
3369;SDS011;42042;51.948;7.628;2023-05-07T12:38:23;11.70;;;10.50;;
3369;SDS011;42042;51.948;7.628;2023-05-07T12:40:53;10.30;;;9.30;;
3369;SDS011;42042;51.948;7.628;2023-05-07T12:43:20;8.97;;;8.07;;
3369;SDS011;42042;51.948;7.628;2023-05-07T12:45:48;10.43;;;8.83;;
3369;SDS011;42042;51.948;7.628;2023-05-07T12:48:17;10.37;;;8.97;;
3369;SDS011;42042;51.948;7.628;2023-05-07T12:50:48;11.20;;;10.10;;
3369;SDS011;42042;51.948;7.628;2023-05-07T12:53:16;10.30;;;9.30;;
3369;SDS011;42042;51.948;7.628;2023-05-07T12:55:43;9.00;;;7.90;;
3369;SDS011;42042;51.948;7.628;2023-05-07T12:58:14;9.23;;;8.23;;
3369;SDS011;42042;51.948;7.628;2023-05-07T13:00:42;10.97;;;9.87;;
3369;SDS011;42042;51.948;7.628;2023-05-07T13:03:10;11.97;;;9.77;;
3369;SDS011;42042;51.948;7.628;2023-05-07T13:05:39;15.90;;;14.20;;
3369;SDS011;42042;51.948;7.628;2023-05-07T13:08:06;12.30;;;9.40;;
3369;SDS011;42042;51.948;7.628;2023-05-07T13:10:34;15.97;;;10.37;;
3369;SDS011;42042;51.948;7.628;2023-05-07T13:13:02;11.40;;;10.20;;
3369;SDS011;42042;51.948;7.628;2023-05-07T13:15:29;10.77;;;9.83;;
3369;SDS011;42042;51.948;7.628;2023-05-07T13:17:56;11.97;;;10.77;;
3369;SDS011;42042;51.948;7.628;2023-05-07T13:20:24;12.13;;;10.93;;
3369;SDS011;42042;51.948;7.628;2023-05-07T13:22:52;12.17;;;10.80;;
3369;SDS011;42042;51.948;7.628;2023-05-07T13:25:19;11.03;;;9.90;;
3369;SDS011;42042;51.948;7.628;2023-05-07T13:27:47;10.13;;;9.00;;
3369;SDS011;42042;51.948;7.628;2023-05-07T13:30:14;11.13;;;10.00;;
3369;SDS011;42042;51.948;7.628;2023-05-07T13:32:41;11.00;;;9.80;;
3369;SDS011;42042;51.948;7.628;2023-05-07T13:35:09;11.93;;;10.27;;
3369;SDS011;42042;51.948;7.628;2023-05-07T13:37:36;11.80;;;10.63;;
3369;SDS011;42042;51.948;7.628;2023-05-07T13:40:05;10.50;;;9.60;;
3369;SDS011;42042;51.948;7.628;2023-05-07T13:42:32;16.50;;;9.33;;
3369;SDS011;42042;51.948;7.628;2023-05-07T13:45:00;12.67;;;10.10;;
3369;SDS011;42042;51.948;7.628;2023-05-07T13:47:28;9.77;;;8.90;;
3369;SDS011;42042;51.948;7.628;2023-05-07T13:49:55;10.10;;;9.10;;
3369;SDS011;42042;51.948;7.628;2023-05-07T13:52:22;10.93;;;9.83;;
3369;SDS011;42042;51.948;7.628;2023-05-07T13:54:49;10.80;;;9.70;;
3369;SDS011;42042;51.948;7.628;2023-05-07T13:57:19;11.37;;;8.97;;
3369;SDS011;42042;51.948;7.628;2023-05-07T13:59:46;8.60;;;7.90;;
3369;SDS011;42042;51.948;7.628;2023-05-07T14:02:13;9.13;;;8.23;;
3369;SDS011;42042;51.948;7.628;2023-05-07T14:04:40;11.97;;;8.57;;
3369;SDS011;42042;51.948;7.628;2023-05-07T14:07:07;10.10;;;9.10;;
3369;SDS011;42042;51.948;7.628;2023-05-07T14:09:35;10.17;;;8.60;;
3369;SDS011;42042;51.948;7.628;2023-05-07T14:12:02;10.60;;;8.80;;
3369;SDS011;42042;51.948;7.628;2023-05-07T14:14:31;9.50;;;8.50;;
3369;SDS011;42042;51.948;7.628;2023-05-07T14:19:30;8.70;;;7.80;;
3369;SDS011;42042;51.948;7.628;2023-05-07T14:21:57;8.97;;;7.47;;
3369;SDS011;42042;51.948;7.628;2023-05-07T14:24:24;8.00;;;7.30;;
3369;SDS011;42042;51.948;7.628;2023-05-07T14:26:52;9.23;;;8.10;;
3369;SDS011;42042;51.948;7.628;2023-05-07T14:29:19;8.47;;;7.63;;
3369;SDS011;42042;51.948;7.628;2023-05-07T14:31:48;10.53;;;8.47;;
3369;SDS011;42042;51.948;7.628;2023-05-07T14:34:15;9.67;;;8.83;;
3369;SDS011;42042;51.948;7.628;2023-05-07T14:36:42;9.00;;;7.97;;
3369;SDS011;42042;51.948;7.628;2023-05-07T14:39:10;8.13;;;7.43;;
3369;SDS011;42042;51.948;7.628;2023-05-07T14:41:37;8.20;;;7.50;;
3369;SDS011;42042;51.948;7.628;2023-05-07T14:44:04;8.63;;;7.60;;
3369;SDS011;42042;51.948;7.628;2023-05-07T14:46:31;11.33;;;10.33;;
3369;SDS011;42042;51.948;7.628;2023-05-07T14:49:01;9.90;;;8.30;;
3369;SDS011;42042;51.948;7.628;2023-05-07T14:51:29;9.17;;;8.33;;
3369;SDS011;42042;51.948;7.628;2023-05-07T14:53:58;7.93;;;7.23;;